TimeEST,TemperatureF,Dew PointF,Humidity,Sea Level PressureIn,VisibilityMPH,Wind Direction,Wind SpeedMPH,Gust SpeedMPH,PrecipitationIn,Events,Conditions,WindDirDegrees,DateUTC
12:53 AM,59.0,50.0,72,30.14,10.0,WNW,10.4,-,N/A,,Clear,300,2013-01-18 05:53:00
1:53 AM,59.0,48.9,69,30.14,10.0,NW,10.4,19.6,N/A,,Clear,310,2013-01-18 06:53:00
2:53 AM,57.9,48.9,72,30.14,10.0,NW,11.5,-,N/A,,Clear,310,2013-01-18 07:53:00
3:53 AM,57.0,48.0,72,30.15,10.0,NW,11.5,-,N/A,,Clear,320,2013-01-18 08:53:00
4:53 AM,55.9,46.9,72,30.16,10.0,NW,13.8,-,N/A,,Clear,320,2013-01-18 09:53:00
5:53 AM,55.0,46.9,74,30.18,10.0,WNW,8.1,-,N/A,,Clear,300,2013-01-18 10:53:00
6:53 AM,54.0,48.0,80,30.20,10.0,WNW,5.8,-,N/A,,Mostly Cloudy,300,2013-01-18 11:53:00
7:53 AM,55.0,48.0,77,30.23,10.0,North,8.1,-,N/A,,Overcast,350,2013-01-18 12:53:00
8:53 AM,55.9,46.0,69,30.25,10.0,NW,10.4,-,N/A,,Overcast,320,2013-01-18 13:53:00
9:53 AM,55.9,45.0,67,30.27,10.0,NNW,11.5,-,N/A,,Overcast,340,2013-01-18 14:53:00
10:53 AM,57.0,46.9,69,30.27,10.0,NNW,6.9,-,N/A,,Overcast,330,2013-01-18 15:53:00
11:53 AM,61.0,48.9,64,30.24,10.0,Variable,5.8,-,N/A,,Overcast,0,2013-01-18 16:53:00
12:41 PM,64.4,48.2,56,30.22,10.0,Variable,3.5,-,N/A,,Mostly Cloudy,0,2013-01-18 17:41:00
12:53 PM,62.1,48.9,62,30.21,10.0,Variable,4.6,-,N/A,,Overcast,0,2013-01-18 17:53:00
1:03 PM,64.4,50.0,59,30.20,10.0,Calm,Calm,-,N/A,,Overcast,0,2013-01-18 18:03:00
1:53 PM,66.0,50.0,56,30.18,10.0,NNE,6.9,-,N/A,,Overcast,20,2013-01-18 18:53:00
2:53 PM,66.9,51.1,57,30.17,10.0,NE,4.6,-,N/A,,Overcast,40,2013-01-18 19:53:00
3:53 PM,66.9,53.1,61,30.18,10.0,NE,5.8,-,N/A,,Overcast,50,2013-01-18 20:53:00
4:53 PM,68.0,57.9,70,30.19,10.0,NE,9.2,-,N/A,,Overcast,40,2013-01-18 21:53:00
5:53 PM,68.0,59.0,73,30.19,10.0,ENE,4.6,-,0.00,,Overcast,60,2013-01-18 22:53:00
6:53 PM,69.1,57.0,65,30.20,10.0,ENE,8.1,-,N/A,,Overcast,60,2013-01-18 23:53:00
7:53 PM,70.0,57.0,63,30.21,10.0,ENE,8.1,-,N/A,,Mostly Cloudy,60,2013-01-19 00:53:00
8:53 PM,70.0,57.0,63,30.21,10.0,ENE,11.5,-,N/A,,Overcast,60,2013-01-19 01:53:00
9:53 PM,70.0,57.9,65,30.22,10.0,ENE,12.7,-,0.00,,Overcast,70,2013-01-19 02:53:00
10:53 PM,70.0,55.9,61,30.21,10.0,ENE,5.8,-,N/A,,Overcast,70,2013-01-19 03:53:00
11:53 PM,70.0,55.9,61,30.20,10.0,ENE,5.8,-,N/A,,Overcast,70,2013-01-19 04:53:00